• Join FlightAware (Why Join?)
  • Login
  • US Flag 
06:40AM EDT


 

Airport Tracker/Info


-or-


 

Live Flight TrackerFlight Track Log ✈ N618JB ✈ 04-Apr-2013 ✈ KFLL - KHPN

Flight Track Log - Related Links

Times and Time Zones

All times are in EDT time to prevent confusion due to time zone crossing. See the N618JB flight status page for this flight to view local times or setup timezone preferences in your user account.

Time Position Orientation Groundspeed Altitude Reporting Facility
EDT Latitude Longitude Course Direction KTS MPH feet Rate Location/Type
10:31PM 26.0750 -80.1389 342° North 149 171 700  Level Miami Center
10:32PM 26.0903 -80.1047 64° Northeast 198 228 2,000 1,560 Climbing Miami Center
10:33PM 26.1372 -80.0550 44° Northeast 289 333 3,400 1,260 Climbing Miami Center
10:34PM 26.2106 -80.0125 279° West  Level FlightAware Approximate
10:34PM 26.2222 -80.0897 340° North 295 339 5,000  Level Miami Center
10:35PM 26.2309 -80.1652 278° West  Level FlightAware Approximate
10:35PM 26.2856 -80.1494 320° Northwest 270 311 7,900  Level Miami Center
10:36PM 26.3163 -80.2830 318° Northwest  Level FlightAware Approximate
10:36PM 26.3469 -80.2067 320° Northwest 277 319 10,800  Level Miami Center
10:37PM 26.4295 -80.3668 342° North  Level FlightAware Approximate
10:37PM 26.4208 -80.2622 326° Northwest 309 356 12,200  Level Miami Center
10:38PM 26.5183 -80.2953 343° North 339 390 14,500 2,220 Climbing Miami Center
10:39PM 26.6197 -80.3331 342° North 377 434 16,700 1,800 Climbing Miami Center
10:40PM 26.7233 -80.3708 342° North 385 443 18,200 1,500 Climbing Miami Center
10:41PM 26.8225 -80.4089 341° North 399 459 19,700 1,560 Climbing Miami Center
10:42PM 26.9342 -80.4519 341° North 412 474 21,400 1,440 Climbing Miami Center
10:43PM 27.0481 -80.4925 342° North 417 480 22,600 1,260 Climbing Miami Center
10:44PM 27.1681 -80.5361 342° North 434 499 24,000 1,380 Climbing Miami Center
10:45PM 27.2858 -80.5819 341° North 440 506 25,400 1,260 Climbing Miami Center
10:46PM 27.4058 -80.6256 342° North 440 506 26,600 1,200 Climbing Miami Center
10:47PM 27.5278 -80.6717 341° North 445 512 27,900 1,080 Climbing Miami Center
10:48PM 27.6519 -80.7181 342° North 451 519 28,800 840 Climbing Miami Center
10:49PM 27.7758 -80.7644 342° North 462 532 29,600 900 Climbing Miami Center
10:50PM 27.9186 -80.8139 343° North 469 540 30,700 1,200 Climbing Miami Center
10:51PM 28.0444 -80.8631 341° North 474 545 32,000 1,200 Climbing Miami Center
10:52PM 28.1725 -80.9100 342° North 474 545 33,200 1,140 Climbing Miami Center
10:53PM 28.2944 -80.9567 341° North 474 545 34,300 600 Climbing Miami Center
10:55PM 28.5164 -81.0450 341° North 473 544 35,000 180 Climbing Jacksonville Center
10:56PM 28.6403 -81.0925 341° North 468 539 35,000  Level Jacksonville Center
10:57PM 28.7639 -81.1353 343° North 462 532 35,000  Level Jacksonville Center
10:58PM 28.8894 -81.1639 349° North 462 532 35,000  Level Jacksonville Center
10:59PM 29.0172 -81.1925 349° North 462 532 35,000  Level Jacksonville Center
11:00PM 29.1472 -81.2236 348° North 462 532 35,000  Level Jacksonville Center
11:01PM 29.2769 -81.2569 347° North 468 539 35,000  Level Jacksonville Center
11:02PM 29.4067 -81.2858 349° North 468 539 35,000  Level Jacksonville Center
11:03PM 29.5531 -81.3050 354° North 468 539 35,000  Level Jacksonville Center
11:04PM 29.6950 -81.2978 North 481 554 35,000  Level Jacksonville Center
11:05PM 29.8328 -81.2908 North 481 554 35,000  Level Jacksonville Center
11:06PM 29.9744 -81.2836 North 495 570 35,000  Level Jacksonville Center
11:07PM 30.1186 -81.2814 North 500 575 35,000  Level Jacksonville Center
11:08PM 30.2625 -81.2717 North 505 581 35,000  Level Jacksonville Center
11:09PM 30.4064 -81.2692 North 510 587 35,000  Level Jacksonville Center
11:10PM 30.5381 -81.2622 North 521 600 35,000  Level Jacksonville Center
11:11PM 30.6842 -81.2572 North 521 600 35,000  Level Jacksonville Center
11:12PM 30.8281 -81.2522 North 515 593 35,000  Level Jacksonville Center
11:13PM 30.9742 -81.2450 North 515 593 35,000 -60 Level Jacksonville Center
11:14PM 31.1181 -81.2425 North 515 593 34,900 -60 Descending Jacksonville Center
11:15PM 31.2642 -81.2375 North 515 593 34,900 60 Level Jacksonville Center
11:16PM 31.4081 -81.2300 North 515 593 35,100  Climbing Jacksonville Center
11:17PM 31.5731 -81.2222 North 520 598 35,000 -60 Descending Jacksonville Center
11:18PM 31.7150 -81.2172 North 520 598 35,000  Level Jacksonville Center
11:19PM 31.8481 -81.1831 12° North 525 604 35,000  Level Jacksonville Center
11:20PM 31.9819 -81.0531 39° Northeast 533 613 35,000  Level Jacksonville Center
11:21PM 32.0869 -80.9456 41° Northeast 556 640 35,000  Level Jacksonville Center
11:22PM 32.2183 -80.8150 40° Northeast 556 640 35,000 -60 Level Jacksonville Center
11:23PM 32.3375 -80.6944 41° Northeast 556 640 34,900  Descending Jacksonville Center
11:24PM 32.4544 -80.5758 41° Northeast 556 640 35,000  Climbing Jacksonville Center
11:25PM 32.5731 -80.4544 41° Northeast 561 646 35,000  Level Jacksonville Center
11:26PM 32.6917 -80.3328 41° Northeast 561 646 35,000  Level Jacksonville Center
11:27PM 32.8125 -80.2108 40° Northeast 561 646 35,000  Level Jacksonville Center
11:28PM 32.9206 -80.0986 41° Northeast 567 652 35,000  Level Jacksonville Center
11:29PM 33.0408 -79.9736 41° Northeast 567 652 35,000  Level Jacksonville Center
11:30PM 33.1592 -79.8556 40° Northeast 567 652 35,000  Level Jacksonville Center
11:31PM 33.2792 -79.7297 41° Northeast 567 652 35,000  Level Jacksonville Center
11:32PM 33.3972 -79.6086 41° Northeast 567 652 35,000  Level Jacksonville Center
11:33PM 33.5150 -79.4847 41° Northeast 562 647 35,000  Level Jacksonville Center
11:35PM 33.7339 -79.2547 41° Northeast 551 634 35,000  Level Washington Center
11:36PM 33.8525 -79.1300 41° Northeast 551 634 35,000  Level Washington Center
11:37PM 33.9686 -79.0072 41° Northeast 551 634 35,000 -60 Level Washington Center
11:38PM 34.0828 -78.8867 41° Northeast 551 634 34,900 -60 Descending Washington Center
11:39PM 34.2092 -78.7561 40° Northeast 551 634 34,900  Level Washington Center
11:40PM 34.3253 -78.6322 41° Northeast 551 634 35,000  Climbing Washington Center
11:41PM 34.4408 -78.5156 40° Northeast 546 628 35,000  Level Washington Center
11:42PM 34.5583 -78.3936 41° Northeast 546 628 35,000  Level Washington Center
11:43PM 34.6781 -78.2767 39° Northeast 546 628 35,000  Level Washington Center
11:44PM 34.7931 -78.1592 40° Northeast 546 628 35,000  Level Washington Center
11:45PM 34.8956 -78.0483 42° Northeast 546 628 35,000  Level Washington Center
11:46PM 35.0278 -77.9128 40° Northeast 546 628 35,000  Level Washington Center
11:47PM 35.1428 -77.7942 40° Northeast 546 628 35,000  Level Washington Center
11:48PM 35.2639 -77.6703 40° Northeast 546 628 35,000  Level Washington Center
11:49PM 35.3806 -77.5486 40° Northeast 546 628 35,000  Level Washington Center
11:50PM 35.5056 -77.4394 35° Northeast 546 628 35,000  Level Washington Center
11:51PM 35.6361 -77.3478 30° Northeast 546 628 35,000  Level Washington Center
11:52PM 35.7711 -77.2536 30° Northeast 546 628 35,000  Level Washington Center
11:53PM 35.9017 -77.1561 31° Northeast 546 628 35,000  Level Washington Center
11:54PM 36.0156 -77.0711 31° Northeast 536 617 35,000  Level Washington Center
11:55PM 36.1461 -76.9758 31° Northeast 536 617 35,000 -60 Level Washington Center
11:56PM 36.2783 -76.8828 30° Northeast 541 623 34,900  Descending Washington Center
11:57PM 36.4089 -76.7869 31° Northeast 546 628 35,000  Climbing Washington Center
11:58PM 36.5392 -76.6906 31° Northeast 546 628 34,900  Descending Washington Center
11:59PM 36.6692 -76.5914 31° Northeast 546 628 35,000  Climbing Washington Center
12:00AM 36.7953 -76.4944 32° Northeast 541 623 35,000  Level Washington Center
12:01AM 36.9378 -76.3869 31° Northeast 536 617 35,000  Level Washington Center
12:02AM 37.0636 -76.2947 30° Northeast 536 617 35,000  Level Washington Center
12:03AM 37.1914 -76.1967 31° Northeast 536 617 35,000 -60 Level Washington Center
12:04AM 37.3192 -76.1064 29° Northeast 536 617 34,900  Descending Washington Center
12:05AM 37.4444 -76.0103 31° Northeast 531 611 35,000  Climbing Washington Center
12:06AM 37.5700 -75.9167 31° Northeast 531 611 34,900 -60 Descending Washington Center
12:07AM 37.6953 -75.8175 32° Northeast 531 611 34,900  Level Washington Center
12:08AM 37.8228 -75.7181 32° Northeast 531 611 35,000  Climbing Washington Center
12:09AM 37.9458 -75.6233 31° Northeast 526 605 35,000  Level Washington Center
12:10AM 38.0689 -75.5231 33° Northeast 526 605 35,000 -60 Level Washington Center
12:11AM 38.1981 -75.4333 29° Northeast 521 600 34,900  Descending Washington Center
12:12AM 38.3231 -75.3269 34° Northeast 521 600 35,000  Climbing Washington Center
12:13AM 38.4478 -75.2286 32° Northeast 527 606 35,000  Level Washington Center
12:14AM 38.5747 -75.1322 31° Northeast 527 606 35,000 -240 Level Washington Center
12:15AM 38.6992 -75.0303 33° Northeast 527 606 34,600 -720 Descending Washington Center
12:16AM 38.8217 -74.9336 32° Northeast 522 601 33,600 -960 Descending Washington Center
12:17AM 38.9483 -74.8336 32° Northeast 522 601 32,700 -960 Descending Washington Center
12:18AM 39.0747 -74.7306 32° Northeast 522 601 31,700 -960 Descending Washington Center
12:19AM 39.1950 -74.6303 33° Northeast 516 594 30,800 -840 Descending Washington Center
12:19AM 39.2342 -74.5983 32° Northeast 517 595 30,600 -840 Descending New York Center
12:20AM 39.3411 -74.5156 31° Northeast 517 595 29,700 -960 Descending New York Center
12:21AM 39.4567 -74.4194 33° Northeast 505 581 28,700 -1,020 Descending New York Center
12:22AM 39.5744 -74.3233 32° Northeast 505 581 27,700 -1,440 Descending New York Center
12:25AM 39.8364 -74.0342 40° Northeast 476 548 23,900 -1,620 Descending Boston Center
12:26AM 39.9358 -73.9283 39° Northeast 469 540 22,100 -1,920 Descending Boston Center
12:27AM 40.0267 -73.8300 40° Northeast 456 525 20,100 -2,040 Descending Boston Center
12:28AM 40.1194 -73.7289 40° Northeast 433 498 18,000 -1,620 Descending Boston Center
12:29AM 40.1997 -73.6436 39° Northeast 428 493 17,000 -540 Descending Boston Center
12:30AM 40.2881 -73.5444 41° Northeast 418 481 17,000  Level Boston Center
12:31AM 40.3786 -73.4561 37° Northeast 413 475 17,000  Level Boston Center
12:32AM 40.4831 -73.4194 15° North 386 444 17,000 -540 Level Boston Center
12:33AM 40.5875 -73.3803 16° North 386 444 16,000 -1,020 Descending Boston Center
12:34AM 40.6983 -73.3381 16° North 386 444 15,000 -540 Descending Boston Center
12:35AM 40.7667 -73.3167 13° North 328 377 15,100 -360 Climbing New York TRACON
12:36AM 40.8333 -73.2167 49° Northeast 330 380 14,400 -1,920 Descending New York TRACON
12:37AM 40.8833 -73.1333 52° Northeast 352 405 11,100 -3,000 Descending New York TRACON
12:38AM 40.9667 -73.1167 North 287 330 8,400 -2,040 Descending New York TRACON
12:39AM 41.0333 -73.1333 349° North 290 334 7,500 -1,500 Descending New York TRACON
12:40AM 41.0667 -73.2167 298° West 264 304 5,700 -1,560 Descending New York TRACON
12:40AM 41.0667 -73.3000 270° West 248 285 4,600 -1,320 Descending New York TRACON
12:41AM 41.1000 -73.3667 304° West 246 283 3,200 -780 Descending New York TRACON
12:42AM 41.1333 -73.4500 298° West 233 268 3,100 -60 Descending New York TRACON
12:43AM 41.1667 -73.5167 304° West 225 259 3,100  Level New York TRACON
12:44AM 41.2000 -73.5833 304° West 217 250 3,100  Level New York TRACON
12:45AM 41.2333 -73.6333 312° West 215 247 3,100  Level New York TRACON
12:46AM 41.2667 -73.7000 304° West 199 229 3,100  Level New York TRACON
12:47AM 41.3000 -73.7667 304° West 191 220 3,100 -300 Level New York TRACON
12:48AM 41.2667 -73.8000 217° Southwest 186 214 2,600 -540 Descending New York TRACON
12:49AM 41.2167 -73.8000 180° South 180 207 2,100 -300 Descending New York TRACON
12:50AM 41.1833 -73.8000 180° South 173 199 2,100  Level New York TRACON